sensor_id;sensor_type;location;lat;lon;timestamp;temperature;humidity
8459;DHT22;4266;48.816;9.154;2022-12-13T00:02:08;-6.60;99.90
8459;DHT22;4266;48.816;9.154;2022-12-13T00:04:34;-6.80;99.90
8459;DHT22;4266;48.816;9.154;2022-12-13T00:06:59;-6.70;99.90
8459;DHT22;4266;48.816;9.154;2022-12-13T00:09:25;-6.70;99.90
8459;DHT22;4266;48.816;9.154;2022-12-13T00:11:51;-6.70;99.90
8459;DHT22;4266;48.816;9.154;2022-12-13T00:14:17;-6.60;99.90
8459;DHT22;4266;48.816;9.154;2022-12-13T00:16:44;-6.70;99.90
8459;DHT22;4266;48.816;9.154;2022-12-13T00:19:09;-6.70;99.90
8459;DHT22;4266;48.816;9.154;2022-12-13T00:21:35;-6.70;99.90
8459;DHT22;4266;48.816;9.154;2022-12-13T00:24:02;-6.80;99.90
8459;DHT22;4266;48.816;9.154;2022-12-13T00:26:28;-6.80;99.90
8459;DHT22;4266;48.816;9.154;2022-12-13T00:28:53;-6.90;99.90
8459;DHT22;4266;48.816;9.154;2022-12-13T00:31:20;-6.80;99.90
8459;DHT22;4266;48.816;9.154;2022-12-13T00:33:45;-6.80;99.90
8459;DHT22;4266;48.816;9.154;2022-12-13T00:36:11;-6.80;99.90
8459;DHT22;4266;48.816;9.154;2022-12-13T00:38:37;-6.80;99.90
8459;DHT22;4266;48.816;9.154;2022-12-13T00:41:09;-6.70;99.90
8459;DHT22;4266;48.816;9.154;2022-12-13T00:43:34;-6.80;99.90
8459;DHT22;4266;48.816;9.154;2022-12-13T00:46:00;-6.70;99.90
8459;DHT22;4266;48.816;9.154;2022-12-13T00:48:26;-6.70;99.90
8459;DHT22;4266;48.816;9.154;2022-12-13T00:50:51;-6.80;99.90
8459;DHT22;4266;48.816;9.154;2022-12-13T00:53:17;-6.80;99.90
8459;DHT22;4266;48.816;9.154;2022-12-13T00:55:43;-6.90;99.90
8459;DHT22;4266;48.816;9.154;2022-12-13T00:58:09;-6.80;99.90
8459;DHT22;4266;48.816;9.154;2022-12-13T01:00:35;-6.80;99.90
8459;DHT22;4266;48.816;9.154;2022-12-13T01:03:00;-6.90;99.90
8459;DHT22;4266;48.816;9.154;2022-12-13T01:05:26;-7.00;99.90
8459;DHT22;4266;48.816;9.154;2022-12-13T01:07:52;-6.90;99.90
8459;DHT22;4266;48.816;9.154;2022-12-13T01:10:18;-6.80;99.90
8459;DHT22;4266;48.816;9.154;2022-12-13T01:12:44;-6.90;99.90
8459;DHT22;4266;48.816;9.154;2022-12-13T01:15:10;-7.00;99.90
8459;DHT22;4266;48.816;9.154;2022-12-13T01:17:36;-7.00;99.90
8459;DHT22;4266;48.816;9.154;2022-12-13T01:20:03;-6.90;99.90
8459;DHT22;4266;48.816;9.154;2022-12-13T01:22:29;-6.90;99.90
8459;DHT22;4266;48.816;9.154;2022-12-13T01:24:55;-6.90;99.90
8459;DHT22;4266;48.816;9.154;2022-12-13T01:27:21;-6.90;99.90
8459;DHT22;4266;48.816;9.154;2022-12-13T01:29:46;-6.90;99.90
8459;DHT22;4266;48.816;9.154;2022-12-13T01:32:12;-6.90;99.90
8459;DHT22;4266;48.816;9.154;2022-12-13T01:34:38;-7.00;99.90
8459;DHT22;4266;48.816;9.154;2022-12-13T01:37:04;-7.00;99.90
8459;DHT22;4266;48.816;9.154;2022-12-13T01:39:29;-6.90;99.90
8459;DHT22;4266;48.816;9.154;2022-12-13T01:41:55;-6.90;99.90
8459;DHT22;4266;48.816;9.154;2022-12-13T01:46:59;-7.10;99.80
8459;DHT22;4266;48.816;9.154;2022-12-13T01:49:25;-7.20;99.10
8459;DHT22;4266;48.816;9.154;2022-12-13T01:51:52;-7.30;99.10
8459;DHT22;4266;48.816;9.154;2022-12-13T01:54:18;-7.20;99.30
8459;DHT22;4266;48.816;9.154;2022-12-13T01:56:43;-7.20;99.60
8459;DHT22;4266;48.816;9.154;2022-12-13T01:59:09;-7.20;99.50
8459;DHT22;4266;48.816;9.154;2022-12-13T02:01:34;-7.20;99.50
8459;DHT22;4266;48.816;9.154;2022-12-13T02:04:00;-7.20;99.60
8459;DHT22;4266;48.816;9.154;2022-12-13T02:06:32;-7.30;99.70
8459;DHT22;4266;48.816;9.154;2022-12-13T02:08:55;-7.20;99.90
8459;DHT22;4266;48.816;9.154;2022-12-13T02:11:21;-7.20;99.90
8459;DHT22;4266;48.816;9.154;2022-12-13T02:13:46;-7.10;99.90
8459;DHT22;4266;48.816;9.154;2022-12-13T02:16:25;-7.20;99.90
8459;DHT22;4266;48.816;9.154;2022-12-13T02:18:59;-7.20;99.90
8459;DHT22;4266;48.816;9.154;2022-12-13T02:27:21;-7.10;99.90
8459;DHT22;4266;48.816;9.154;2022-12-13T02:29:57;-7.10;99.90
8459;DHT22;4266;48.816;9.154;2022-12-13T02:32:24;-7.10;99.90
8459;DHT22;4266;48.816;9.154;2022-12-13T02:35:02;-7.10;99.90
8459;DHT22;4266;48.816;9.154;2022-12-13T02:37:30;-7.10;99.90
8459;DHT22;4266;48.816;9.154;2022-12-13T02:39:56;-7.20;99.90
8459;DHT22;4266;48.816;9.154;2022-12-13T02:42:23;-7.20;99.90
8459;DHT22;4266;48.816;9.154;2022-12-13T02:44:51;-7.30;99.90
8459;DHT22;4266;48.816;9.154;2022-12-13T02:47:17;-7.30;99.90
8459;DHT22;4266;48.816;9.154;2022-12-13T02:49:44;-7.40;99.90
8459;DHT22;4266;48.816;9.154;2022-12-13T02:52:09;-7.40;99.90
8459;DHT22;4266;48.816;9.154;2022-12-13T02:54:34;-7.50;99.40
8459;DHT22;4266;48.816;9.154;2022-12-13T02:57:00;-7.50;99.10
8459;DHT22;4266;48.816;9.154;2022-12-13T02:59:30;-7.50;99.20
8459;DHT22;4266;48.816;9.154;2022-12-13T03:02:16;-7.50;99.60
8459;DHT22;4266;48.816;9.154;2022-12-13T03:05:01;-7.50;99.90
8459;DHT22;4266;48.816;9.154;2022-12-13T03:07:35;-7.40;99.90
8459;DHT22;4266;48.816;9.154;2022-12-13T03:10:04;-7.50;99.90
8459;DHT22;4266;48.816;9.154;2022-12-13T03:12:40;-7.40;99.90
8459;DHT22;4266;48.816;9.154;2022-12-13T03:15:24;-7.40;99.90
8459;DHT22;4266;48.816;9.154;2022-12-13T03:17:57;-7.40;99.90
8459;DHT22;4266;48.816;9.154;2022-12-13T03:20:26;-7.30;99.90
8459;DHT22;4266;48.816;9.154;2022-12-13T03:22:51;-7.20;99.90
8459;DHT22;4266;48.816;9.154;2022-12-13T03:25:16;-7.20;99.90
8459;DHT22;4266;48.816;9.154;2022-12-13T03:27:42;-7.20;99.90
8459;DHT22;4266;48.816;9.154;2022-12-13T03:30:08;-7.20;99.90
8459;DHT22;4266;48.816;9.154;2022-12-13T03:32:34;-7.30;99.90
8459;DHT22;4266;48.816;9.154;2022-12-13T03:35:00;-7.40;99.90
8459;DHT22;4266;48.816;9.154;2022-12-13T03:37:25;-7.30;99.90
8459;DHT22;4266;48.816;9.154;2022-12-13T03:39:51;-7.10;99.90
8459;DHT22;4266;48.816;9.154;2022-12-13T03:42:17;-7.30;99.90
8459;DHT22;4266;48.816;9.154;2022-12-13T03:44:43;-7.20;99.90
8459;DHT22;4266;48.816;9.154;2022-12-13T03:47:09;-7.30;99.90
8459;DHT22;4266;48.816;9.154;2022-12-13T03:49:35;-7.30;99.90
8459;DHT22;4266;48.816;9.154;2022-12-13T03:52:01;-7.30;99.90
8459;DHT22;4266;48.816;9.154;2022-12-13T03:54:27;-7.40;99.90
8459;DHT22;4266;48.816;9.154;2022-12-13T03:56:53;-7.30;99.90
8459;DHT22;4266;48.816;9.154;2022-12-13T03:59:19;-7.30;99.90
8459;DHT22;4266;48.816;9.154;2022-12-13T04:01:45;-7.20;99.90
8459;DHT22;4266;48.816;9.154;2022-12-13T04:04:11;-7.10;99.90
8459;DHT22;4266;48.816;9.154;2022-12-13T04:06:37;-7.10;99.90
8459;DHT22;4266;48.816;9.154;2022-12-13T04:09:03;-7.00;99.90
8459;DHT22;4266;48.816;9.154;2022-12-13T04:11:28;-7.00;99.90
8459;DHT22;4266;48.816;9.154;2022-12-13T04:14:00;-6.90;99.90
8459;DHT22;4266;48.816;9.154;2022-12-13T04:16:26;-6.90;99.90
8459;DHT22;4266;48.816;9.154;2022-12-13T04:18:52;-6.90;99.90
8459;DHT22;4266;48.816;9.154;2022-12-13T04:21:17;-6.80;99.90
8459;DHT22;4266;48.816;9.154;2022-12-13T04:23:43;-6.90;99.80
8459;DHT22;4266;48.816;9.154;2022-12-13T04:26:09;-6.90;99.50
8459;DHT22;4266;48.816;9.154;2022-12-13T04:28:35;-6.90;99.50
8459;DHT22;4266;48.816;9.154;2022-12-13T04:31:00;-6.80;99.40
8459;DHT22;4266;48.816;9.154;2022-12-13T04:33:26;-6.80;98.70
8459;DHT22;4266;48.816;9.154;2022-12-13T04:35:52;-6.90;98.50
8459;DHT22;4266;48.816;9.154;2022-12-13T04:38:18;-6.80;98.70
8459;DHT22;4266;48.816;9.154;2022-12-13T04:40:43;-6.80;98.50
8459;DHT22;4266;48.816;9.154;2022-12-13T04:43:09;-6.80;98.40
8459;DHT22;4266;48.816;9.154;2022-12-13T04:45:35;-6.80;98.30
8459;DHT22;4266;48.816;9.154;2022-12-13T04:48:01;-6.80;98.10
8459;DHT22;4266;48.816;9.154;2022-12-13T04:50:26;-6.80;98.10
8459;DHT22;4266;48.816;9.154;2022-12-13T04:52:52;-6.90;98.10
8459;DHT22;4266;48.816;9.154;2022-12-13T04:55:18;-6.90;97.70
8459;DHT22;4266;48.816;9.154;2022-12-13T04:57:43;-6.90;98.00
8459;DHT22;4266;48.816;9.154;2022-12-13T05:00:11;-6.90;97.60
8459;DHT22;4266;48.816;9.154;2022-12-13T05:02:38;-7.00;98.00
8459;DHT22;4266;48.816;9.154;2022-12-13T05:05:04;-7.00;98.00
8459;DHT22;4266;48.816;9.154;2022-12-13T05:07:30;-6.90;98.20
8459;DHT22;4266;48.816;9.154;2022-12-13T05:09:56;-6.90;97.90
8459;DHT22;4266;48.816;9.154;2022-12-13T05:12:22;-6.90;97.50
8459;DHT22;4266;48.816;9.154;2022-12-13T05:14:47;-6.90;97.30
8459;DHT22;4266;48.816;9.154;2022-12-13T05:17:14;-6.80;97.30
8459;DHT22;4266;48.816;9.154;2022-12-13T05:19:40;-6.80;97.30
8459;DHT22;4266;48.816;9.154;2022-12-13T05:22:05;-6.80;97.00
8459;DHT22;4266;48.816;9.154;2022-12-13T05:24:31;-6.80;96.90
8459;DHT22;4266;48.816;9.154;2022-12-13T05:26:57;-6.90;96.90
8459;DHT22;4266;48.816;9.154;2022-12-13T05:29:23;-7.00;96.60
8459;DHT22;4266;48.816;9.154;2022-12-13T05:31:48;-7.00;97.10
8459;DHT22;4266;48.816;9.154;2022-12-13T05:34:14;-7.00;97.10
8459;DHT22;4266;48.816;9.154;2022-12-13T05:36:40;-7.00;96.80
8459;DHT22;4266;48.816;9.154;2022-12-13T05:39:06;-7.00;97.00
8459;DHT22;4266;48.816;9.154;2022-12-13T05:41:32;-7.00;97.00
8459;DHT22;4266;48.816;9.154;2022-12-13T05:43:57;-7.10;96.90
8459;DHT22;4266;48.816;9.154;2022-12-13T05:46:23;-7.20;96.50
8459;DHT22;4266;48.816;9.154;2022-12-13T05:48:48;-7.20;97.10
8459;DHT22;4266;48.816;9.154;2022-12-13T05:51:14;-7.30;97.20
8459;DHT22;4266;48.816;9.154;2022-12-13T05:53:41;-7.30;97.30
8459;DHT22;4266;48.816;9.154;2022-12-13T05:56:07;-7.30;97.30
8459;DHT22;4266;48.816;9.154;2022-12-13T05:58:32;-7.30;97.40
8459;DHT22;4266;48.816;9.154;2022-12-13T06:01:08;-7.30;97.70
8459;DHT22;4266;48.816;9.154;2022-12-13T06:03:33;-7.20;97.60
8459;DHT22;4266;48.816;9.154;2022-12-13T06:05:59;-7.30;97.10
8459;DHT22;4266;48.816;9.154;2022-12-13T06:08:25;-7.30;97.10
8459;DHT22;4266;48.816;9.154;2022-12-13T06:10:54;-7.30;97.00
8459;DHT22;4266;48.816;9.154;2022-12-13T06:13:19;-7.30;97.10
8459;DHT22;4266;48.816;9.154;2022-12-13T06:15:45;-7.40;97.20
8459;DHT22;4266;48.816;9.154;2022-12-13T06:18:11;-7.30;97.20
8459;DHT22;4266;48.816;9.154;2022-12-13T06:20:36;-7.30;97.10
8459;DHT22;4266;48.816;9.154;2022-12-13T06:23:02;-7.30;97.50
8459;DHT22;4266;48.816;9.154;2022-12-13T06:25:28;-7.40;97.60
8459;DHT22;4266;48.816;9.154;2022-12-13T06:27:54;-7.40;97.00
8459;DHT22;4266;48.816;9.154;2022-12-13T06:30:19;-7.40;97.40
8459;DHT22;4266;48.816;9.154;2022-12-13T06:32:47;-7.50;97.40
8459;DHT22;4266;48.816;9.154;2022-12-13T06:35:13;-7.50;97.80
8459;DHT22;4266;48.816;9.154;2022-12-13T06:37:38;-7.50;98.00
8459;DHT22;4266;48.816;9.154;2022-12-13T06:40:05;-7.60;97.90
8459;DHT22;4266;48.816;9.154;2022-12-13T06:42:31;-7.70;97.80
8459;DHT22;4266;48.816;9.154;2022-12-13T06:44:57;-7.60;98.40
8459;DHT22;4266;48.816;9.154;2022-12-13T06:47:24;-7.50;98.60
8459;DHT22;4266;48.816;9.154;2022-12-13T06:49:52;-7.50;98.70
8459;DHT22;4266;48.816;9.154;2022-12-13T06:52:18;-7.60;99.20
8459;DHT22;4266;48.816;9.154;2022-12-13T06:54:45;-7.40;99.40
8459;DHT22;4266;48.816;9.154;2022-12-13T06:57:11;-7.50;98.70
8459;DHT22;4266;48.816;9.154;2022-12-13T06:59:37;-7.50;98.50
8459;DHT22;4266;48.816;9.154;2022-12-13T07:02:03;-7.40;98.50
8459;DHT22;4266;48.816;9.154;2022-12-13T07:04:29;-7.40;98.60
8459;DHT22;4266;48.816;9.154;2022-12-13T07:06:55;-7.30;98.30
8459;DHT22;4266;48.816;9.154;2022-12-13T07:09:21;-7.30;99.20
8459;DHT22;4266;48.816;9.154;2022-12-13T07:11:48;-7.20;98.20
8459;DHT22;4266;48.816;9.154;2022-12-13T07:14:15;-7.20;97.50
8459;DHT22;4266;48.816;9.154;2022-12-13T07:16:44;-7.20;97.00
8459;DHT22;4266;48.816;9.154;2022-12-13T07:19:10;-7.30;96.70
8459;DHT22;4266;48.816;9.154;2022-12-13T07:21:37;-7.40;96.30
8459;DHT22;4266;48.816;9.154;2022-12-13T07:24:04;-7.30;96.60
8459;DHT22;4266;48.816;9.154;2022-12-13T07:26:31;-7.30;96.20
8459;DHT22;4266;48.816;9.154;2022-12-13T07:28:57;-7.20;96.50
8459;DHT22;4266;48.816;9.154;2022-12-13T07:31:23;-7.00;95.90
8459;DHT22;4266;48.816;9.154;2022-12-13T07:33:49;-7.00;95.50
8459;DHT22;4266;48.816;9.154;2022-12-13T07:36:17;-6.80;95.50
8459;DHT22;4266;48.816;9.154;2022-12-13T07:38:42;-6.70;94.70
8459;DHT22;4266;48.816;9.154;2022-12-13T07:41:08;-6.30;94.40
8459;DHT22;4266;48.816;9.154;2022-12-13T07:43:35;-6.30;94.10
8459;DHT22;4266;48.816;9.154;2022-12-13T07:46:01;-6.30;94.00
8459;DHT22;4266;48.816;9.154;2022-12-13T07:48:27;-6.20;93.70
8459;DHT22;4266;48.816;9.154;2022-12-13T07:50:53;-5.70;93.50
8459;DHT22;4266;48.816;9.154;2022-12-13T07:53:18;-5.40;92.80
8459;DHT22;4266;48.816;9.154;2022-12-13T07:55:44;-5.00;91.70
8459;DHT22;4266;48.816;9.154;2022-12-13T07:58:10;-4.20;91.70
8459;DHT22;4266;48.816;9.154;2022-12-13T08:00:36;-3.70;90.00
8459;DHT22;4266;48.816;9.154;2022-12-13T08:03:01;-3.40;89.20
8459;DHT22;4266;48.816;9.154;2022-12-13T08:05:27;-3.70;88.60
8459;DHT22;4266;48.816;9.154;2022-12-13T08:07:53;-3.70;90.10
8459;DHT22;4266;48.816;9.154;2022-12-13T08:10:19;-2.70;88.50
8459;DHT22;4266;48.816;9.154;2022-12-13T08:12:45;-2.20;88.60
8459;DHT22;4266;48.816;9.154;2022-12-13T08:15:10;-2.50;86.90
8459;DHT22;4266;48.816;9.154;2022-12-13T08:17:36;-2.20;85.30
8459;DHT22;4266;48.816;9.154;2022-12-13T08:20:03;-2.60;84.00
8459;DHT22;4266;48.816;9.154;2022-12-13T08:22:28;-2.90;84.70
8459;DHT22;4266;48.816;9.154;2022-12-13T08:24:54;-3.00;84.40
8459;DHT22;4266;48.816;9.154;2022-12-13T08:27:20;-2.30;84.00
8459;DHT22;4266;48.816;9.154;2022-12-13T08:29:47;-1.60;82.50
8459;DHT22;4266;48.816;9.154;2022-12-13T08:32:12;-1.10;82.10
8459;DHT22;4266;48.816;9.154;2022-12-13T08:34:38;-1.00;81.80
8459;DHT22;4266;48.816;9.154;2022-12-13T08:37:04;-1.30;81.20
8459;DHT22;4266;48.816;9.154;2022-12-13T08:39:30;-1.00;80.80
8459;DHT22;4266;48.816;9.154;2022-12-13T08:41:56;-0.60;80.80
8459;DHT22;4266;48.816;9.154;2022-12-13T08:44:21;-0.60;79.90
8459;DHT22;4266;48.816;9.154;2022-12-13T08:46:47;-0.70;80.80
8459;DHT22;4266;48.816;9.154;2022-12-13T08:49:13;0.00;80.90
8459;DHT22;4266;48.816;9.154;2022-12-13T08:51:39;0.80;80.00
8459;DHT22;4266;48.816;9.154;2022-12-13T08:54:05;0.50;79.50
8459;DHT22;4266;48.816;9.154;2022-12-13T08:56:31;0.60;80.40
8459;DHT22;4266;48.816;9.154;2022-12-13T08:58:56;1.20;79.40
8459;DHT22;4266;48.816;9.154;2022-12-13T09:01:23;1.90;77.70
8459;DHT22;4266;48.816;9.154;2022-12-13T09:03:49;2.60;74.00
8459;DHT22;4266;48.816;9.154;2022-12-13T09:06:15;2.60;74.50
8459;DHT22;4266;48.816;9.154;2022-12-13T09:08:42;3.20;75.30
8459;DHT22;4266;48.816;9.154;2022-12-13T09:11:08;3.20;75.00
8459;DHT22;4266;48.816;9.154;2022-12-13T09:13:34;2.40;72.80
8459;DHT22;4266;48.816;9.154;2022-12-13T09:16:03;2.10;74.00
8459;DHT22;4266;48.816;9.154;2022-12-13T09:18:28;2.60;73.60
8459;DHT22;4266;48.816;9.154;2022-12-13T09:20:53;2.80;72.40
8459;DHT22;4266;48.816;9.154;2022-12-13T09:23:20;2.50;73.00
8459;DHT22;4266;48.816;9.154;2022-12-13T09:28:18;2.80;71.30
8459;DHT22;4266;48.816;9.154;2022-12-13T09:30:45;3.00;70.70
8459;DHT22;4266;48.816;9.154;2022-12-13T09:33:11;3.60;69.70
8459;DHT22;4266;48.816;9.154;2022-12-13T09:35:37;4.10;68.20
8459;DHT22;4266;48.816;9.154;2022-12-13T09:38:03;4.10;67.90
8459;DHT22;4266;48.816;9.154;2022-12-13T09:40:29;3.60;68.00
8459;DHT22;4266;48.816;9.154;2022-12-13T09:42:55;3.80;67.20
8459;DHT22;4266;48.816;9.154;2022-12-13T09:45:20;2.50;66.90
8459;DHT22;4266;48.816;9.154;2022-12-13T09:47:46;3.60;66.60
8459;DHT22;4266;48.816;9.154;2022-12-13T09:50:26;3.90;65.30
8459;DHT22;4266;48.816;9.154;2022-12-13T09:52:40;3.90;65.40
8459;DHT22;4266;48.816;9.154;2022-12-13T09:55:25;4.90;64.00
8459;DHT22;4266;48.816;9.154;2022-12-13T09:57:50;4.90;63.90
8459;DHT22;4266;48.816;9.154;2022-12-13T10:00:18;4.50;64.00
8459;DHT22;4266;48.816;9.154;2022-12-13T10:02:54;2.80;63.20
8459;DHT22;4266;48.816;9.154;2022-12-13T10:05:21;3.80;64.50
8459;DHT22;4266;48.816;9.154;2022-12-13T10:07:46;4.50;60.80
8459;DHT22;4266;48.816;9.154;2022-12-13T10:10:12;4.30;61.30
8459;DHT22;4266;48.816;9.154;2022-12-13T10:12:37;4.20;60.90
8459;DHT22;4266;48.816;9.154;2022-12-13T10:15:03;4.20;59.90
8459;DHT22;4266;48.816;9.154;2022-12-13T10:17:32;4.20;59.90
8459;DHT22;4266;48.816;9.154;2022-12-13T10:19:56;4.80;61.40
8459;DHT22;4266;48.816;9.154;2022-12-13T10:22:22;4.60;59.60
8459;DHT22;4266;48.816;9.154;2022-12-13T10:24:52;5.00;59.00
8459;DHT22;4266;48.816;9.154;2022-12-13T10:27:18;5.10;59.00
8459;DHT22;4266;48.816;9.154;2022-12-13T10:32:20;5.30;58.20
8459;DHT22;4266;48.816;9.154;2022-12-13T10:34:46;5.00;57.30
8459;DHT22;4266;48.816;9.154;2022-12-13T10:37:19;4.60;57.30
8459;DHT22;4266;48.816;9.154;2022-12-13T10:39:44;4.00;57.40
8459;DHT22;4266;48.816;9.154;2022-12-13T10:42:12;3.40;57.70
8459;DHT22;4266;48.816;9.154;2022-12-13T10:44:36;3.90;58.40
8459;DHT22;4266;48.816;9.154;2022-12-13T10:47:03;3.30;58.30
8459;DHT22;4266;48.816;9.154;2022-12-13T10:49:45;3.60;59.00
8459;DHT22;4266;48.816;9.154;2022-12-13T10:52:06;3.40;58.40
8459;DHT22;4266;48.816;9.154;2022-12-13T10:54:32;3.70;58.40
8459;DHT22;4266;48.816;9.154;2022-12-13T10:56:57;3.30;57.70
8459;DHT22;4266;48.816;9.154;2022-12-13T10:59:24;3.00;58.60
8459;DHT22;4266;48.816;9.154;2022-12-13T11:01:48;3.60;58.80
8459;DHT22;4266;48.816;9.154;2022-12-13T11:04:22;3.70;58.30
8459;DHT22;4266;48.816;9.154;2022-12-13T11:06:46;4.20;58.60
8459;DHT22;4266;48.816;9.154;2022-12-13T11:09:23;4.00;57.70
8459;DHT22;4266;48.816;9.154;2022-12-13T11:11:42;4.00;56.80
8459;DHT22;4266;48.816;9.154;2022-12-13T11:14:15;3.40;58.30
8459;DHT22;4266;48.816;9.154;2022-12-13T11:16:38;3.50;58.30
8459;DHT22;4266;48.816;9.154;2022-12-13T11:19:03;3.40;58.20
8459;DHT22;4266;48.816;9.154;2022-12-13T11:21:28;3.30;58.20
8459;DHT22;4266;48.816;9.154;2022-12-13T11:23:54;3.20;57.40
8459;DHT22;4266;48.816;9.154;2022-12-13T11:26:21;4.10;57.40
8459;DHT22;4266;48.816;9.154;2022-12-13T11:31:22;4.30;57.40
8459;DHT22;4266;48.816;9.154;2022-12-13T11:33:59;4.10;56.90
8459;DHT22;4266;48.816;9.154;2022-12-13T11:36:37;3.50;57.30
8459;DHT22;4266;48.816;9.154;2022-12-13T11:39:16;3.80;57.80
8459;DHT22;4266;48.816;9.154;2022-12-13T11:41:48;3.40;57.40
8459;DHT22;4266;48.816;9.154;2022-12-13T11:44:16;3.50;57.70
8459;DHT22;4266;48.816;9.154;2022-12-13T11:46:41;3.60;57.90
8459;DHT22;4266;48.816;9.154;2022-12-13T11:49:15;3.50;57.10
8459;DHT22;4266;48.816;9.154;2022-12-13T11:51:47;3.40;57.70
8459;DHT22;4266;48.816;9.154;2022-12-13T11:54:27;2.80;57.60
8459;DHT22;4266;48.816;9.154;2022-12-13T11:56:50;2.90;57.70
8459;DHT22;4266;48.816;9.154;2022-12-13T11:59:38;2.70;57.60
8459;DHT22;4266;48.816;9.154;2022-12-13T12:02:13;2.60;57.50
8459;DHT22;4266;48.816;9.154;2022-12-13T12:04:41;2.00;58.20
8459;DHT22;4266;48.816;9.154;2022-12-13T12:07:10;1.90;57.40
8459;DHT22;4266;48.816;9.154;2022-12-13T12:09:35;1.90;57.50
8459;DHT22;4266;48.816;9.154;2022-12-13T12:12:03;1.90;58.40
8459;DHT22;4266;48.816;9.154;2022-12-13T12:14:51;2.20;58.30
8459;DHT22;4266;48.816;9.154;2022-12-13T12:17:13;2.80;58.40
8459;DHT22;4266;48.816;9.154;2022-12-13T12:19:57;2.30;58.10
8459;DHT22;4266;48.816;9.154;2022-12-13T12:25:49;2.70;57.10
8459;DHT22;4266;48.816;9.154;2022-12-13T12:31:34;2.80;57.70
8459;DHT22;4266;48.816;9.154;2022-12-13T12:34:15;2.90;57.40
8459;DHT22;4266;48.816;9.154;2022-12-13T12:37:11;3.10;57.60
8459;DHT22;4266;48.816;9.154;2022-12-13T13:00:38;2.80;58.70
8459;DHT22;4266;48.816;9.154;2022-12-13T13:03:25;2.40;58.60
8459;DHT22;4266;48.816;9.154;2022-12-13T13:06:22;2.50;58.20
8459;DHT22;4266;48.816;9.154;2022-12-13T13:08:57;2.40;58.20
8459;DHT22;4266;48.816;9.154;2022-12-13T13:11:32;2.70;58.20
8459;DHT22;4266;48.816;9.154;2022-12-13T13:14:00;2.60;58.10
8459;DHT22;4266;48.816;9.154;2022-12-13T13:16:29;2.60;58.40
8459;DHT22;4266;48.816;9.154;2022-12-13T13:18:55;2.70;57.60
8459;DHT22;4266;48.816;9.154;2022-12-13T13:21:25;2.70;57.60
8459;DHT22;4266;48.816;9.154;2022-12-13T13:24:04;2.90;57.90
8459;DHT22;4266;48.816;9.154;2022-12-13T13:26:29;2.70;57.60
8459;DHT22;4266;48.816;9.154;2022-12-13T13:29:14;2.70;58.00
8459;DHT22;4266;48.816;9.154;2022-12-13T13:31:21;2.10;58.80
8459;DHT22;4266;48.816;9.154;2022-12-13T13:33:47;2.10;58.80
8459;DHT22;4266;48.816;9.154;2022-12-13T13:38:50;1.40;58.90
8459;DHT22;4266;48.816;9.154;2022-12-13T13:43:49;1.10;58.60
8459;DHT22;4266;48.816;9.154;2022-12-13T13:46:15;1.10;59.30
8459;DHT22;4266;48.816;9.154;2022-12-13T13:48:51;0.90;59.80
8459;DHT22;4266;48.816;9.154;2022-12-13T13:54:05;0.50;61.00
8459;DHT22;4266;48.816;9.154;2022-12-13T13:56:33;0.30;60.50
8459;DHT22;4266;48.816;9.154;2022-12-13T14:01:58;0.30;61.30
8459;DHT22;4266;48.816;9.154;2022-12-13T14:04:44;0.20;62.40
8459;DHT22;4266;48.816;9.154;2022-12-13T14:07:16;0.20;62.40
8459;DHT22;4266;48.816;9.154;2022-12-13T14:09:46;0.20;61.90
8459;DHT22;4266;48.816;9.154;2022-12-13T14:20:51;-0.10;65.30
8459;DHT22;4266;48.816;9.154;2022-12-13T14:23:42;-0.10;65.20
8459;DHT22;4266;48.816;9.154;2022-12-13T14:26:27;-0.10;65.20
8459;DHT22;4266;48.816;9.154;2022-12-13T14:28:59;-0.10;64.60
8459;DHT22;4266;48.816;9.154;2022-12-13T14:31:25;-0.30;64.50
8459;DHT22;4266;48.816;9.154;2022-12-13T14:33:50;-0.30;65.20
8459;DHT22;4266;48.816;9.154;2022-12-13T14:36:16;-0.30;65.50
8459;DHT22;4266;48.816;9.154;2022-12-13T14:38:41;-0.40;64.30
8459;DHT22;4266;48.816;9.154;2022-12-13T14:41:14;-0.40;65.20
8459;DHT22;4266;48.816;9.154;2022-12-13T14:43:35;-0.30;65.40
8459;DHT22;4266;48.816;9.154;2022-12-13T14:46:03;-0.40;65.80
8459;DHT22;4266;48.816;9.154;2022-12-13T14:48:29;-0.50;66.10
8459;DHT22;4266;48.816;9.154;2022-12-13T14:50:55;-0.60;65.60
8459;DHT22;4266;48.816;9.154;2022-12-13T14:56:09;-0.70;66.00
8459;DHT22;4266;48.816;9.154;2022-12-13T14:58:35;-0.70;66.00
8459;DHT22;4266;48.816;9.154;2022-12-13T15:01:00;-0.80;65.20
8459;DHT22;4266;48.816;9.154;2022-12-13T15:03:26;-0.80;65.50
8459;DHT22;4266;48.816;9.154;2022-12-13T15:05:53;-0.80;65.90
8459;DHT22;4266;48.816;9.154;2022-12-13T15:08:19;-0.90;66.50
8459;DHT22;4266;48.816;9.154;2022-12-13T15:10:45;-1.00;66.40
8459;DHT22;4266;48.816;9.154;2022-12-13T15:13:27;-0.90;66.80
8459;DHT22;4266;48.816;9.154;2022-12-13T15:15:53;-0.90;66.00
8459;DHT22;4266;48.816;9.154;2022-12-13T15:18:19;-1.00;65.70
8459;DHT22;4266;48.816;9.154;2022-12-13T15:20:45;-1.20;65.10
8459;DHT22;4266;48.816;9.154;2022-12-13T15:23:12;-1.20;65.10
8459;DHT22;4266;48.816;9.154;2022-12-13T15:25:36;-1.20;65.80
8459;DHT22;4266;48.816;9.154;2022-12-13T15:28:02;-1.30;64.00
8459;DHT22;4266;48.816;9.154;2022-12-13T15:30:28;-1.40;64.20
8459;DHT22;4266;48.816;9.154;2022-12-13T15:33:01;-1.40;64.20
8459;DHT22;4266;48.816;9.154;2022-12-13T15:35:26;-1.40;64.60
8459;DHT22;4266;48.816;9.154;2022-12-13T15:37:52;-1.40;65.10
8459;DHT22;4266;48.816;9.154;2022-12-13T15:40:19;-1.50;65.00
8459;DHT22;4266;48.816;9.154;2022-12-13T15:42:44;-1.50;64.60
8459;DHT22;4266;48.816;9.154;2022-12-13T15:45:18;-1.50;65.20
8459;DHT22;4266;48.816;9.154;2022-12-13T15:47:44;-1.50;64.30
8459;DHT22;4266;48.816;9.154;2022-12-13T15:50:27;-1.60;63.60
8459;DHT22;4266;48.816;9.154;2022-12-13T15:52:35;-1.60;64.00
8459;DHT22;4266;48.816;9.154;2022-12-13T15:55:21;-1.60;64.30
8459;DHT22;4266;48.816;9.154;2022-12-13T15:57:29;-1.60;64.00
8459;DHT22;4266;48.816;9.154;2022-12-13T16:00:00;-1.70;63.50
8459;DHT22;4266;48.816;9.154;2022-12-13T16:02:25;-1.70;63.50
8459;DHT22;4266;48.816;9.154;2022-12-13T16:04:51;-1.70;62.70
8459;DHT22;4266;48.816;9.154;2022-12-13T16:07:19;-1.80;62.20
8459;DHT22;4266;48.816;9.154;2022-12-13T16:09:42;-1.80;61.30
8459;DHT22;4266;48.816;9.154;2022-12-13T16:12:13;-1.90;61.20
8459;DHT22;4266;48.816;9.154;2022-12-13T16:14:36;-1.80;61.50
8459;DHT22;4266;48.816;9.154;2022-12-13T16:17:11;-1.90;61.60
8459;DHT22;4266;48.816;9.154;2022-12-13T16:19:34;-1.90;61.50
8459;DHT22;4266;48.816;9.154;2022-12-13T16:22:01;-1.90;62.10
8459;DHT22;4266;48.816;9.154;2022-12-13T16:24:26;-1.90;62.10
8459;DHT22;4266;48.816;9.154;2022-12-13T16:26:52;-1.90;62.10
8459;DHT22;4266;48.816;9.154;2022-12-13T16:29:18;-2.00;62.20
8459;DHT22;4266;48.816;9.154;2022-12-13T16:31:44;-2.00;62.70
8459;DHT22;4266;48.816;9.154;2022-12-13T16:34:10;-2.00;62.60
8459;DHT22;4266;48.816;9.154;2022-12-13T16:36:36;-2.00;63.00
8459;DHT22;4266;48.816;9.154;2022-12-13T16:39:03;-2.00;62.50
8459;DHT22;4266;48.816;9.154;2022-12-13T16:41:28;-2.00;63.50
8459;DHT22;4266;48.816;9.154;2022-12-13T16:43:57;-2.00;63.40
8459;DHT22;4266;48.816;9.154;2022-12-13T16:46:21;-2.00;63.40
8459;DHT22;4266;48.816;9.154;2022-12-13T16:48:47;-2.00;63.40
8459;DHT22;4266;48.816;9.154;2022-12-13T16:51:13;-2.10;63.60
8459;DHT22;4266;48.816;9.154;2022-12-13T16:53:38;-2.00;64.20
8459;DHT22;4266;48.816;9.154;2022-12-13T16:56:06;-2.10;63.90
8459;DHT22;4266;48.816;9.154;2022-12-13T16:58:32;-2.20;63.80
8459;DHT22;4266;48.816;9.154;2022-12-13T17:00:57;-2.20;63.60
8459;DHT22;4266;48.816;9.154;2022-12-13T17:03:24;-2.20;64.90
8459;DHT22;4266;48.816;9.154;2022-12-13T17:05:50;-2.20;64.90
8459;DHT22;4266;48.816;9.154;2022-12-13T17:08:16;-2.30;64.60
8459;DHT22;4266;48.816;9.154;2022-12-13T17:10:42;-2.30;64.60
8459;DHT22;4266;48.816;9.154;2022-12-13T17:13:08;-2.30;65.10
8459;DHT22;4266;48.816;9.154;2022-12-13T17:15:33;-2.30;65.30